createdAt,value
2022-11-26T00:05:02.424Z,11.23
2022-11-26T00:10:13.952Z,9.82
2022-11-26T00:15:21.282Z,10.82
2022-11-26T00:20:29.095Z,10.20
2022-11-26T00:25:39.591Z,11.65
2022-11-26T00:30:44.122Z,10.32
2022-11-26T00:35:49.566Z,12.63
2022-11-26T00:45:57.373Z,12.05
2022-11-26T00:56:04.798Z,9.38
2022-11-26T01:01:12.452Z,11.75
2022-11-26T01:06:18.325Z,12.85
2022-11-26T01:11:23.410Z,10.95
2022-11-26T01:16:30.244Z,11.43
2022-11-26T01:21:33.498Z,10.65
2022-11-26T01:26:40.219Z,10.40
2022-11-26T01:31:45.117Z,10.30
2022-11-26T01:36:48.301Z,10.55
2022-11-26T01:41:59.688Z,11.00
2022-11-26T01:47:20.114Z,9.30
2022-11-26T01:52:25.475Z,9.93
2022-11-26T02:02:34.406Z,11.40
2022-11-26T02:07:38.793Z,12.27
2022-11-26T02:12:42.953Z,11.70
2022-11-26T02:17:52.247Z,11.65
2022-11-26T02:23:11.224Z,12.05
2022-11-26T02:28:33.441Z,11.80
2022-11-26T02:33:45.387Z,10.48
2022-11-26T02:38:48.812Z,12.23
2022-11-26T02:43:52.118Z,11.20
2022-11-26T02:48:56.761Z,11.27
2022-11-26T02:54:01.783Z,13.82
2022-11-26T02:59:05.742Z,13.48
2022-11-26T03:04:17.601Z,12.50
2022-11-26T03:09:22.817Z,13.73
2022-11-26T03:14:25.960Z,11.20
2022-11-26T03:19:30.560Z,13.30
2022-11-26T03:24:33.909Z,13.67
2022-11-26T03:29:37.127Z,14.10
2022-11-26T03:34:42.939Z,13.68
2022-11-26T03:39:46.577Z,14.00
2022-11-26T03:44:49.754Z,15.32
2022-11-26T03:49:54.480Z,15.07
2022-11-26T03:54:57.727Z,17.07
2022-11-26T04:00:00.923Z,16.67
2022-11-26T04:05:06.847Z,15.80
2022-11-26T04:10:10.758Z,14.93
2022-11-26T04:15:14.046Z,15.70
2022-11-26T04:20:19.033Z,15.98
2022-11-26T04:25:22.673Z,15.85
2022-11-26T04:30:30.020Z,17.48
2022-11-26T04:35:34.878Z,17.65
2022-11-26T04:40:38.416Z,15.38
2022-11-26T04:45:41.564Z,15.27
2022-11-26T04:50:46.087Z,16.63
2022-11-26T04:55:49.679Z,16.07
2022-11-26T05:00:53.129Z,16.08
2022-11-26T05:05:57.732Z,15.10
2022-11-26T05:11:03.050Z,14.60
2022-11-26T05:21:11.170Z,12.98
2022-11-26T05:26:14.419Z,14.57
2022-11-26T05:31:18.653Z,15.48
2022-11-26T05:36:23.161Z,13.10
2022-11-26T05:41:26.358Z,13.43
2022-11-26T05:46:29.761Z,13.25
2022-11-26T05:51:34.419Z,12.48
2022-11-26T05:56:37.586Z,11.93
2022-11-26T06:01:40.788Z,11.63
2022-11-26T06:06:45.667Z,9.63
2022-11-26T06:11:49.253Z,12.32
2022-11-26T06:16:52.475Z,11.50
2022-11-26T06:21:56.988Z,13.73
2022-11-26T06:27:00.274Z,12.07
2022-11-26T06:32:03.820Z,12.30
2022-11-26T06:37:08.375Z,11.43
2022-11-26T06:42:11.513Z,11.13
2022-11-26T06:47:14.962Z,10.95
2022-11-26T06:52:19.465Z,11.68
2022-11-26T06:57:22.606Z,10.87
2022-11-26T07:02:25.739Z,11.82
2022-11-26T07:07:30.583Z,10.25
2022-11-26T07:12:33.788Z,9.65
2022-11-26T07:17:36.911Z,9.48
2022-11-26T07:22:41.391Z,10.05
2022-11-26T07:27:45.490Z,10.30
2022-11-26T07:32:48.591Z,10.63
2022-11-26T07:37:56.012Z,11.15
2022-11-26T07:43:00.146Z,10.82
2022-11-26T07:48:04.613Z,9.32
2022-11-26T07:53:09.064Z,9.13
2022-11-26T07:58:12.282Z,12.20
2022-11-26T08:03:15.484Z,10.02
2022-11-26T08:08:20.058Z,10.68
2022-11-26T08:13:23.305Z,9.77
2022-11-26T08:18:26.506Z,9.27
2022-11-26T08:23:31.838Z,9.90
2022-11-26T08:33:39.404Z,11.85
2022-11-26T08:38:44.003Z,9.85
2022-11-26T08:49:15.138Z,9.10
2022-11-26T08:54:19.869Z,9.75
2022-11-26T08:59:24.311Z,9.40
2022-11-26T09:04:27.585Z,8.40
2022-11-26T09:09:32.105Z,8.10
2022-11-26T09:14:37.383Z,7.77
2022-11-26T09:19:40.856Z,7.50
2022-11-26T09:24:45.272Z,8.90
2022-11-26T09:29:48.417Z,8.48
2022-11-26T09:34:52.360Z,7.07
2022-11-26T09:39:56.830Z,8.38
2022-11-26T09:45:08.755Z,8.90
2022-11-26T09:50:22.279Z,8.82
2022-11-26T09:55:29.333Z,8.02
2022-11-26T10:00:35.048Z,9.48
2022-11-26T10:05:43.234Z,7.13
2022-11-26T10:10:54.727Z,5.68
2022-11-26T10:16:07.109Z,5.93
2022-11-26T10:21:37.910Z,6.25
2022-11-26T10:26:48.913Z,6.68
2022-11-26T10:31:56.902Z,5.80
2022-11-26T10:37:00.186Z,7.10
2022-11-26T10:42:13.480Z,5.25
2022-11-26T10:47:23.195Z,5.85
2022-11-26T10:52:28.835Z,6.53
2022-11-26T10:57:35.144Z,5.70
2022-11-26T11:02:41.239Z,5.22
2022-11-26T11:07:44.595Z,4.85
2022-11-26T11:12:50.995Z,5.60
2022-11-26T11:17:58.043Z,5.65
2022-11-26T11:23:20.362Z,5.57
2022-11-26T11:28:27.917Z,4.63
2022-11-26T11:33:31.822Z,5.68
2022-11-26T11:38:47.713Z,5.72
2022-11-26T11:43:57.328Z,5.47
2022-11-26T11:49:15.069Z,4.68
2022-11-26T11:54:22.410Z,5.57
2022-11-26T12:00:09.517Z,5.07
2022-11-26T12:05:53.604Z,4.35
2022-11-26T12:11:10.147Z,5.00
2022-11-26T12:16:17.028Z,4.53
2022-11-26T12:21:30.904Z,5.18
2022-11-26T12:26:38.446Z,5.40
2022-11-26T12:31:47.119Z,5.63
2022-11-26T12:36:56.504Z,5.32
2022-11-26T12:42:04.180Z,5.20
2022-11-26T12:47:17.251Z,12.60
2022-11-26T12:52:31.169Z,5.93
2022-11-26T12:57:38.249Z,7.18
2022-11-26T13:02:46.649Z,8.35
2022-11-26T13:08:13.532Z,5.60
2022-11-26T13:13:22.919Z,6.85
2022-11-26T13:18:33.578Z,5.68
2022-11-26T13:23:54.095Z,6.57
2022-11-26T13:29:18.575Z,9.20
2022-11-26T13:34:36.813Z,7.93
2022-11-26T13:39:56.345Z,6.90
2022-11-26T13:45:12.967Z,7.78
2022-11-26T13:50:23.649Z,7.50
2022-11-26T13:55:31.728Z,7.00
2022-11-26T14:00:36.371Z,7.90
2022-11-26T14:06:09.202Z,5.87
2022-11-26T14:11:33.645Z,5.95
2022-11-26T14:17:13.381Z,6.57
2022-11-26T14:22:27.781Z,6.53
2022-11-26T14:27:33.655Z,4.60
2022-11-26T14:32:43.142Z,6.38
2022-11-26T14:37:52.567Z,5.85
2022-11-26T14:43:13.277Z,4.85
2022-11-26T14:48:24.537Z,6.53
2022-11-26T14:53:31.839Z,7.30
2022-11-26T14:58:39.472Z,7.82
2022-11-26T15:03:53.941Z,5.68
2022-11-26T15:09:15.176Z,7.97
2022-11-26T15:14:25.649Z,7.78
2022-11-26T15:19:32.691Z,6.50
2022-11-26T15:24:36.729Z,7.22
2022-11-26T15:29:42.708Z,7.72
2022-11-26T15:34:47.506Z,7.90
2022-11-26T15:40:10.472Z,9.33
2022-11-26T15:45:15.133Z,11.75
2022-11-26T15:50:28.894Z,9.47
2022-11-26T15:55:36.534Z,9.23
2022-11-26T16:00:41.762Z,7.55
2022-11-26T16:05:54.312Z,8.32
2022-11-26T16:11:05.181Z,7.38
2022-11-26T16:16:14.513Z,7.60
2022-11-26T16:21:24.390Z,8.55
2022-11-26T16:26:28.523Z,8.32
2022-11-26T16:31:32.393Z,7.32
2022-11-26T16:36:42.157Z,8.00
2022-11-26T16:41:45.421Z,10.63
2022-11-26T16:46:51.976Z,7.80
2022-11-26T16:51:56.577Z,8.23
2022-11-26T16:56:59.816Z,8.03
2022-11-26T17:02:03.100Z,7.32
2022-11-26T17:07:08.727Z,8.20
2022-11-26T17:12:16.169Z,7.85
2022-11-26T17:17:23.962Z,7.88
2022-11-26T17:22:29.925Z,7.20
2022-11-26T17:27:33.296Z,6.13
2022-11-26T17:32:36.495Z,7.72
2022-11-26T17:37:41.731Z,7.38
2022-11-26T17:42:45.201Z,7.30
2022-11-26T17:47:48.598Z,8.82
2022-11-26T17:52:54.545Z,11.20
2022-11-26T17:57:58.401Z,8.95
2022-11-26T18:03:01.741Z,8.60
2022-11-26T18:08:06.520Z,7.20
2022-11-26T18:13:09.687Z,9.30
2022-11-26T18:18:12.876Z,7.47
2022-11-26T18:23:17.709Z,8.20
2022-11-26T18:28:21.032Z,7.03
2022-11-26T18:33:24.182Z,7.53
2022-11-26T18:38:31.370Z,10.10
2022-11-26T18:43:36.847Z,11.32
2022-11-26T18:48:40.218Z,11.05
2022-11-26T18:53:46.040Z,10.18
2022-11-26T18:58:50.426Z,8.55
2022-11-26T19:03:54.544Z,8.85
2022-11-26T19:09:01.910Z,10.20
2022-11-26T19:14:05.101Z,11.25
2022-11-26T19:19:08.507Z,12.43
2022-11-26T19:24:13.225Z,10.80
2022-11-26T19:29:16.376Z,11.87
2022-11-26T19:34:19.576Z,10.20
2022-11-26T19:39:24.357Z,8.32
2022-11-26T19:44:27.629Z,9.98
2022-11-26T19:49:30.933Z,10.25
2022-11-26T19:54:35.906Z,10.35
2022-11-26T19:59:39.972Z,10.43
2022-11-26T20:04:43.575Z,9.70
2022-11-26T20:09:50.917Z,8.38
2022-11-26T20:14:54.119Z,8.20
2022-11-26T20:19:57.615Z,8.88
2022-11-26T20:32:12.694Z,9.10
2022-11-26T20:37:23.021Z,8.93
2022-11-26T20:42:26.179Z,7.10
2022-11-26T20:47:30.755Z,9.75
2022-11-26T20:52:34.303Z,8.43
2022-11-26T20:57:37.799Z,10.02
2022-11-26T21:02:42.550Z,11.02
2022-11-26T21:07:46.045Z,9.07
2022-11-26T21:12:49.571Z,10.25
2022-11-26T21:17:54.073Z,9.50
2022-11-26T21:22:57.238Z,10.03
2022-11-26T21:28:00.483Z,8.93
2022-11-26T21:33:09.299Z,9.45
2022-11-26T21:38:12.949Z,10.75
2022-11-26T21:43:16.094Z,9.45
2022-11-26T21:48:20.688Z,9.45
2022-11-26T21:53:24.580Z,7.67
2022-11-26T21:58:27.921Z,8.68
2022-11-26T22:03:35.000Z,9.13
2022-11-26T22:08:39.295Z,9.82
2022-11-26T22:13:42.618Z,11.10
2022-11-26T22:18:47.758Z,11.77
2022-11-26T22:23:51.503Z,10.93
2022-11-26T22:28:55.772Z,10.35
2022-11-26T22:34:02.354Z,10.35
2022-11-26T22:39:11.015Z,10.45
2022-11-26T22:44:15.708Z,10.15
2022-11-26T22:49:22.124Z,10.80
2022-11-26T22:54:25.585Z,9.43
2022-11-26T22:59:29.378Z,11.05
2022-11-26T23:04:34.475Z,11.15
2022-11-26T23:09:39.417Z,10.17
2022-11-26T23:14:45.560Z,10.27
2022-11-26T23:19:50.264Z,11.23
2022-11-26T23:24:53.367Z,9.40
2022-11-26T23:29:58.134Z,10.15
2022-11-26T23:35:03.002Z,11.25
2022-11-26T23:40:07.943Z,10.90
2022-11-26T23:45:11.536Z,10.57
2022-11-26T23:50:16.181Z,9.73
2022-11-26T23:55:34.622Z,11.53
